createdAt,value
2023-02-12T00:00:11.980Z,13.77
2023-02-12T00:02:38.874Z,13.77
2023-02-12T00:05:06.634Z,13.75
2023-02-12T00:07:34.809Z,13.75
2023-02-12T00:10:01.958Z,13.76
2023-02-12T00:12:28.973Z,13.74
2023-02-12T00:14:55.850Z,13.76
2023-02-12T00:17:22.736Z,13.78
2023-02-12T00:19:49.629Z,13.81
2023-02-12T00:22:16.552Z,13.81
2023-02-12T00:24:44.707Z,13.83
2023-02-12T00:27:11.626Z,13.84
2023-02-12T00:29:38.766Z,13.85
2023-02-12T00:32:05.856Z,13.84
2023-02-12T00:34:32.766Z,13.84
2023-02-12T00:36:59.609Z,13.85
2023-02-12T00:39:26.668Z,13.85
2023-02-12T00:41:54.876Z,13.82
2023-02-12T00:44:21.797Z,13.78
2023-02-12T00:46:48.745Z,13.77
2023-02-12T00:49:15.891Z,13.74
2023-02-12T00:51:42.767Z,13.72
2023-02-12T00:54:09.618Z,13.70
2023-02-12T00:56:36.687Z,13.67
2023-02-12T00:59:04.857Z,13.65
2023-02-12T01:01:31.727Z,13.64
2023-02-12T01:03:58.616Z,13.62
2023-02-12T01:06:25.895Z,13.61
2023-02-12T01:08:53.380Z,13.58
2023-02-12T01:11:21.009Z,13.56
2023-02-12T01:13:47.906Z,13.56
2023-02-12T01:16:20.594Z,13.56
2023-02-12T01:18:48.746Z,13.57
2023-02-12T01:21:19.187Z,13.58
2023-02-12T01:23:47.763Z,13.58
2023-02-12T01:26:16.548Z,13.60
2023-02-12T01:28:48.715Z,13.61
2023-02-12T01:31:20.537Z,13.60
2023-02-12T01:33:49.690Z,13.61
2023-02-12T01:36:16.650Z,13.61
2023-02-12T01:38:43.831Z,13.61
2023-02-12T01:41:14.849Z,13.62
2023-02-12T01:43:42.559Z,13.63
2023-02-12T01:46:14.629Z,13.66
2023-02-12T01:48:48.025Z,13.66
2023-02-12T01:51:20.386Z,13.65
2023-02-12T01:53:52.335Z,13.63
2023-02-12T01:56:19.945Z,13.62
2023-02-12T01:58:51.138Z,13.60
2023-02-12T02:01:22.587Z,13.56
2023-02-12T02:03:57.072Z,13.55
2023-02-12T02:06:31.240Z,13.50
2023-02-12T02:08:58.253Z,13.50
2023-02-12T02:11:43.548Z,13.49
2023-02-12T02:14:28.979Z,13.44
2023-02-12T02:17:24.345Z,13.37
2023-02-12T02:20:21.421Z,13.34
2023-02-12T02:23:04.035Z,13.34
2023-02-12T02:25:57.204Z,13.32
2023-02-12T02:28:56.834Z,13.30
2023-02-12T02:31:33.274Z,13.28
2023-02-12T02:34:12.235Z,13.23
2023-02-12T02:36:59.555Z,13.19
2023-02-12T02:39:38.631Z,13.18
2023-02-12T02:42:15.555Z,13.17
2023-02-12T02:44:51.044Z,13.17
2023-02-12T02:47:25.166Z,13.15
2023-02-12T02:49:57.528Z,13.14
2023-02-12T02:52:33.879Z,13.14
2023-02-12T02:55:07.195Z,13.14
2023-02-12T02:57:41.344Z,13.13
2023-02-12T03:00:18.286Z,13.14
2023-02-12T03:02:55.146Z,13.15
2023-02-12T03:05:28.698Z,13.16
2023-02-12T03:08:02.907Z,13.17
2023-02-12T03:10:36.494Z,13.17
2023-02-12T03:13:11.787Z,13.16
2023-02-12T03:15:46.911Z,13.14
2023-02-12T03:18:22.758Z,13.12
2023-02-12T03:20:58.509Z,13.11
2023-02-12T03:23:32.562Z,13.11
2023-02-12T03:26:06.221Z,13.11
2023-02-12T03:28:38.311Z,13.13
2023-02-12T03:31:16.845Z,13.14
2023-02-12T03:34:00.127Z,13.12
2023-02-12T03:36:43.119Z,13.08
2023-02-12T03:39:20.406Z,13.08
2023-02-12T03:41:56.628Z,13.08
2023-02-12T03:44:41.761Z,13.07
2023-02-12T03:47:21.035Z,13.08
2023-02-12T03:49:59.376Z,13.09
2023-02-12T03:52:26.986Z,13.11
2023-02-12T03:54:54.026Z,13.12
2023-02-12T03:57:30.424Z,13.10
2023-02-12T03:59:59.006Z,13.11
2023-02-12T04:02:26.100Z,13.13
2023-02-12T04:04:54.456Z,13.17
2023-02-12T04:07:21.948Z,13.16
2023-02-12T04:09:49.130Z,13.15
2023-02-12T04:12:34.728Z,13.10
2023-02-12T04:15:20.935Z,13.10
2023-02-12T04:17:58.260Z,13.13
2023-02-12T04:20:37.743Z,13.16
2023-02-12T04:23:21.105Z,13.17
2023-02-12T04:26:02.808Z,13.18
2023-02-12T04:28:44.161Z,13.18
2023-02-12T04:31:23.598Z,13.18
2023-02-12T04:34:07.188Z,13.18
2023-02-12T04:36:47.142Z,13.18
2023-02-12T04:39:22.040Z,13.19
2023-02-12T04:41:49.462Z,13.20
2023-02-12T04:44:22.375Z,13.20
2023-02-12T04:46:49.415Z,13.23
2023-02-12T04:49:19.755Z,13.25
2023-02-12T04:51:49.372Z,13.27
2023-02-12T04:54:18.953Z,13.27
2023-02-12T04:56:46.358Z,13.28
2023-02-12T04:59:13.995Z,13.30
2023-02-12T05:01:44.208Z,13.33
2023-02-12T05:04:14.491Z,13.35
2023-02-12T05:06:43.132Z,13.36
2023-02-12T05:09:16.601Z,13.36
2023-02-12T05:11:43.839Z,13.35
2023-02-12T05:14:11.380Z,13.35
2023-02-12T05:16:38.404Z,13.34
2023-02-12T05:19:05.622Z,13.34
2023-02-12T05:21:32.560Z,13.32
2023-02-12T05:24:01.438Z,13.30
2023-02-12T05:26:29.902Z,13.32
2023-02-12T05:28:56.799Z,13.32
2023-02-12T05:31:23.883Z,13.33
2023-02-12T05:33:51.042Z,13.32
2023-02-12T05:36:21.188Z,13.33
2023-02-12T05:38:51.719Z,13.32
2023-02-12T05:41:21.870Z,13.30
2023-02-12T05:43:50.925Z,13.29
2023-02-12T05:46:20.364Z,13.28
2023-02-12T05:48:47.893Z,13.24
2023-02-12T05:51:17.696Z,13.21
2023-02-12T05:53:44.566Z,13.18
2023-02-12T05:56:14.988Z,13.15
2023-02-12T05:58:45.196Z,13.13
2023-02-12T06:01:17.039Z,13.12
2023-02-12T06:03:44.749Z,13.10
2023-02-12T06:06:12.626Z,13.09
2023-02-12T06:08:39.843Z,13.10
2023-02-12T06:11:10.985Z,13.11
2023-02-12T06:13:38.125Z,13.14
2023-02-12T06:16:06.219Z,13.16
2023-02-12T06:18:36.846Z,13.15
2023-02-12T06:21:04.281Z,13.16
2023-02-12T06:23:31.223Z,13.13
2023-02-12T06:25:58.603Z,13.14
2023-02-12T06:28:25.827Z,13.12
2023-02-12T06:30:52.993Z,13.12
2023-02-12T06:33:20.037Z,13.11
2023-02-12T06:35:48.345Z,13.12
2023-02-12T06:38:15.388Z,13.13
2023-02-12T06:40:42.353Z,13.13
2023-02-12T06:43:09.521Z,13.13
2023-02-12T06:45:36.675Z,13.15
2023-02-12T06:48:03.969Z,13.13
2023-02-12T06:50:31.246Z,13.12
2023-02-12T06:52:59.931Z,13.11
2023-02-12T06:55:26.946Z,13.08
2023-02-12T06:57:53.899Z,13.07
2023-02-12T07:00:22.444Z,13.08
2023-02-12T07:02:54.366Z,13.09
2023-02-12T07:05:23.156Z,13.11
2023-02-12T07:07:50.287Z,13.15
2023-02-12T07:10:19.783Z,13.20
2023-02-12T07:12:46.838Z,13.22
2023-02-12T07:15:14.664Z,13.26
2023-02-12T07:17:41.872Z,13.27
2023-02-12T07:20:10.063Z,13.28
2023-02-12T07:22:37.284Z,13.29
2023-02-12T07:25:04.930Z,13.29
2023-02-12T07:27:37.262Z,13.28
2023-02-12T07:30:05.702Z,13.29
2023-02-12T07:32:33.088Z,13.26
2023-02-12T07:35:00.194Z,13.23
2023-02-12T07:37:27.218Z,13.21
2023-02-12T07:39:54.122Z,13.21
2023-02-12T07:42:21.166Z,13.22
2023-02-12T07:44:49.987Z,13.21
2023-02-12T07:47:17.553Z,13.23
2023-02-12T07:49:44.555Z,13.24
2023-02-12T07:52:13.494Z,13.26
2023-02-12T07:54:40.435Z,13.28
2023-02-12T07:57:07.356Z,13.29
2023-02-12T07:59:35.583Z,13.29
2023-02-12T08:02:03.889Z,13.29
2023-02-12T08:04:30.867Z,13.27
2023-02-12T08:06:57.860Z,13.26
2023-02-12T08:09:30.707Z,13.27
2023-02-12T08:11:57.859Z,13.29
2023-02-12T08:14:26.675Z,13.31
2023-02-12T08:16:53.655Z,13.35
2023-02-12T08:19:26.131Z,13.42
2023-02-12T08:21:55.833Z,13.46
2023-02-12T08:24:23.336Z,13.49
2023-02-12T08:26:50.638Z,13.53
2023-02-12T08:29:21.582Z,13.53
2023-02-12T08:31:54.969Z,13.53
2023-02-12T08:34:26.231Z,13.53
2023-02-12T08:36:54.870Z,13.56
2023-02-12T08:39:24.365Z,13.61
2023-02-12T08:41:53.677Z,13.65
2023-02-12T08:44:20.837Z,13.66
2023-02-12T08:46:50.496Z,13.68
2023-02-12T08:49:20.926Z,13.70
2023-02-12T08:51:52.270Z,13.69
2023-02-12T08:54:22.464Z,13.68
2023-02-12T08:56:49.968Z,13.70
2023-02-12T08:59:17.949Z,13.71
2023-02-12T09:01:45.361Z,13.72
2023-02-12T09:04:17.844Z,13.72
2023-02-12T09:06:46.163Z,13.73
2023-02-12T09:09:15.205Z,13.73
2023-02-12T09:11:43.086Z,13.74
2023-02-12T09:14:14.081Z,13.75
2023-02-12T09:16:41.552Z,13.79
2023-02-12T09:19:12.208Z,13.79
2023-02-12T09:21:39.203Z,13.83
2023-02-12T09:24:06.668Z,13.86
2023-02-12T09:26:34.976Z,13.89
2023-02-12T09:29:03.965Z,13.91
2023-02-12T09:31:33.277Z,13.94
2023-02-12T09:34:03.766Z,14.00
2023-02-12T09:36:32.555Z,14.03
2023-02-12T09:39:00.406Z,14.06
2023-02-12T09:41:49.773Z,14.07
2023-02-12T09:44:26.590Z,14.11
2023-02-12T09:47:01.252Z,14.15
2023-02-12T09:49:49.937Z,14.16
2023-02-12T09:52:23.188Z,14.23
2023-02-12T09:54:51.291Z,14.29
2023-02-12T09:57:29.224Z,14.29
2023-02-12T10:00:01.863Z,14.35
2023-02-12T10:02:30.047Z,14.42
2023-02-12T10:05:01.979Z,14.47
2023-02-12T10:07:57.463Z,14.48
2023-02-12T10:10:47.107Z,14.47
2023-02-12T10:13:31.465Z,14.47
2023-02-12T10:16:10.130Z,14.51
2023-02-12T10:19:00.827Z,14.55
2023-02-12T10:21:44.696Z,14.59
2023-02-12T10:24:57.206Z,14.58
2023-02-12T10:27:38.363Z,14.63
2023-02-12T10:30:19.975Z,14.61
2023-02-12T10:32:52.712Z,14.68
2023-02-12T10:35:23.550Z,14.70
2023-02-12T10:37:59.288Z,14.72
2023-02-12T10:40:32.846Z,14.76
2023-02-12T10:43:02.685Z,14.84
2023-02-12T10:45:34.053Z,14.91
2023-02-12T10:48:13.336Z,14.89
2023-02-12T10:51:00.644Z,14.86
2023-02-12T10:53:35.030Z,14.84
2023-02-12T10:56:18.236Z,14.79
2023-02-12T10:58:55.592Z,14.77
2023-02-12T11:01:27.515Z,14.78
2023-02-12T11:03:56.343Z,14.83
2023-02-12T11:06:29.333Z,14.89
2023-02-12T11:08:59.274Z,14.97
2023-02-12T11:11:30.620Z,15.03
2023-02-12T11:14:03.171Z,15.08
2023-02-12T11:16:35.148Z,15.08
2023-02-12T11:19:06.179Z,15.07
2023-02-12T11:21:34.565Z,15.08
2023-02-12T11:24:28.707Z,15.04
2023-02-12T11:27:13.306Z,14.97
2023-02-12T11:29:41.033Z,14.97
2023-02-12T11:32:17.102Z,14.96
2023-02-12T11:34:44.078Z,14.98
2023-02-12T11:37:18.684Z,14.99
2023-02-12T11:39:50.317Z,15.00
2023-02-12T11:42:22.351Z,14.99
2023-02-12T11:44:54.604Z,14.98
2023-02-12T11:47:27.065Z,15.04
2023-02-12T11:49:58.578Z,15.11
2023-02-12T11:52:31.082Z,15.11
2023-02-12T11:55:04.700Z,15.12
2023-02-12T11:57:43.487Z,15.16
2023-02-12T12:00:17.997Z,15.24
2023-02-12T12:02:55.151Z,15.29
2023-02-12T12:05:29.584Z,15.33
2023-02-12T12:08:02.974Z,15.36
2023-02-12T12:10:40.792Z,15.38
2023-02-12T12:13:17.183Z,15.47
2023-02-12T12:16:09.163Z,15.53
2023-02-12T12:19:05.728Z,15.59
2023-02-12T12:21:42.367Z,15.66
2023-02-12T12:24:17.246Z,15.69
2023-02-12T12:27:00.664Z,15.67
2023-02-12T12:29:47.437Z,15.59
2023-02-12T12:32:20.473Z,15.57
2023-02-12T12:34:48.889Z,15.53
2023-02-12T12:37:40.320Z,15.46
2023-02-12T12:40:34.980Z,15.40
2023-02-12T12:43:14.390Z,15.36
2023-02-12T12:46:20.757Z,15.32
2023-02-12T12:49:39.198Z,15.38
2023-02-12T12:52:57.549Z,15.43
2023-02-12T12:56:10.688Z,15.41
2023-02-12T12:58:57.666Z,15.42
2023-02-12T13:02:05.091Z,15.30
2023-02-12T13:04:57.007Z,15.20
2023-02-12T13:07:50.569Z,15.15
2023-02-12T13:10:33.962Z,15.11
2023-02-12T13:13:23.301Z,15.09
2023-02-12T13:16:01.045Z,15.11
2023-02-12T13:18:48.417Z,15.11
2023-02-12T13:21:34.893Z,15.17
2023-02-12T13:24:15.333Z,15.24
2023-02-12T13:26:49.276Z,15.25
2023-02-12T13:29:22.695Z,15.33
2023-02-12T13:31:57.738Z,15.31
2023-02-12T13:34:30.525Z,15.27
2023-02-12T13:37:01.038Z,15.25
2023-02-12T13:39:34.512Z,15.25
2023-02-12T13:42:23.657Z,15.23
2023-02-12T13:45:01.425Z,15.21
2023-02-12T13:47:44.514Z,15.16
2023-02-12T13:50:36.493Z,15.11
2023-02-12T13:53:17.707Z,15.12
2023-02-12T13:56:04.205Z,15.12
2023-02-12T13:59:00.114Z,15.12
2023-02-12T14:01:46.516Z,15.11
2023-02-12T14:04:29.904Z,15.09
2023-02-12T14:07:04.423Z,15.07
2023-02-12T14:09:38.080Z,15.03
2023-02-12T14:12:11.429Z,14.99
2023-02-12T14:14:44.446Z,14.97
2023-02-12T14:17:52.941Z,14.91
2023-02-12T14:20:27.243Z,14.96
2023-02-12T14:23:28.016Z,15.01
2023-02-12T14:26:05.542Z,14.99
2023-02-12T14:28:50.109Z,15.02
2023-02-12T14:31:34.611Z,15.09
2023-02-12T14:34:40.792Z,15.09
2023-02-12T14:37:17.944Z,15.14
2023-02-12T14:39:45.527Z,15.15
2023-02-12T14:42:44.123Z,15.12
2023-02-12T14:45:37.080Z,15.12
2023-02-12T14:48:05.236Z,15.16
2023-02-12T14:50:43.064Z,15.14
2023-02-12T14:53:30.499Z,15.05
2023-02-12T14:55:59.890Z,15.07
2023-02-12T14:58:28.005Z,15.04
2023-02-12T15:00:59.834Z,15.02
2023-02-12T15:03:39.881Z,15.01
2023-02-12T15:06:16.148Z,15.00
2023-02-12T15:08:54.760Z,14.98
2023-02-12T15:11:43.218Z,14.95
2023-02-12T15:14:21.031Z,14.97
2023-02-12T15:16:59.907Z,14.97
2023-02-12T15:19:40.558Z,14.96
2023-02-12T15:22:22.810Z,14.94
2023-02-12T15:24:49.904Z,14.94
2023-02-12T15:27:20.424Z,14.95
2023-02-12T15:29:52.651Z,14.94
2023-02-12T15:32:27.176Z,14.93
2023-02-12T15:34:55.974Z,14.93
2023-02-12T15:37:28.112Z,14.89
2023-02-12T15:40:00.233Z,14.86
2023-02-12T15:42:31.220Z,14.84
2023-02-12T15:45:16.177Z,14.81
2023-02-12T15:47:54.620Z,14.79
2023-02-12T15:50:22.539Z,14.79
2023-02-12T15:52:50.824Z,14.79
2023-02-12T15:55:22.593Z,14.77
2023-02-12T15:57:51.280Z,14.73
2023-02-12T16:00:31.967Z,14.67
2023-02-12T16:03:00.223Z,14.65
2023-02-12T16:05:27.941Z,14.63
2023-02-12T16:07:55.783Z,14.64
2023-02-12T16:10:24.076Z,14.65
2023-02-12T16:12:51.931Z,14.66
2023-02-12T16:15:30.689Z,14.65
2023-02-12T16:18:03.873Z,14.65
2023-02-12T16:20:32.094Z,14.66
2023-02-12T16:22:59.974Z,14.69
2023-02-12T16:25:30.460Z,14.73
2023-02-12T16:28:03.082Z,14.74
2023-02-12T16:30:33.317Z,14.75
2023-02-12T16:33:02.284Z,14.77
2023-02-12T16:35:32.469Z,14.77
2023-02-12T16:38:23.403Z,14.74
2023-02-12T16:41:21.515Z,14.67
2023-02-12T16:43:51.151Z,14.72
2023-02-12T16:46:19.410Z,14.69
2023-02-12T16:48:51.610Z,14.66
2023-02-12T16:51:25.081Z,14.64
2023-02-12T16:53:53.979Z,14.64
2023-02-12T16:56:24.837Z,14.64
2023-02-12T16:58:56.216Z,14.63
2023-02-12T17:01:27.728Z,14.62
2023-02-12T17:04:00.088Z,14.64
2023-02-12T17:06:31.310Z,14.63
2023-02-12T17:08:59.124Z,14.65
2023-02-12T17:11:29.149Z,14.66
2023-02-12T17:13:56.846Z,14.66
2023-02-12T17:16:32.362Z,14.66
2023-02-12T17:19:00.660Z,14.69
2023-02-12T17:21:31.277Z,14.69
2023-02-12T17:23:58.372Z,14.68
2023-02-12T17:26:26.917Z,14.66
2023-02-12T17:28:54.107Z,14.65
2023-02-12T17:31:21.182Z,14.64
2023-02-12T17:33:48.360Z,14.62
2023-02-12T17:36:15.357Z,14.60
2023-02-12T17:38:42.298Z,14.58
2023-02-12T17:41:10.642Z,14.59
2023-02-12T17:43:38.936Z,14.60
2023-02-12T17:46:09.829Z,14.59
2023-02-12T17:48:37.166Z,14.61
2023-02-12T17:51:04.672Z,14.64
2023-02-12T17:53:31.837Z,14.65
2023-02-12T17:55:58.919Z,14.65
2023-02-12T17:58:25.935Z,14.64
2023-02-12T18:00:55.300Z,14.62
2023-02-12T18:03:22.875Z,14.61
2023-02-12T18:05:49.704Z,14.61
2023-02-12T18:08:16.609Z,14.60
2023-02-12T18:10:45.194Z,14.60
2023-02-12T18:13:13.778Z,14.61
2023-02-12T18:15:41.594Z,14.60
2023-02-12T18:18:10.362Z,14.60
2023-02-12T18:20:39.824Z,14.60
2023-02-12T18:23:08.378Z,14.60
2023-02-12T18:25:39.240Z,14.59
2023-02-12T18:28:06.326Z,14.58
2023-02-12T18:30:33.442Z,14.59
2023-02-12T18:33:00.558Z,14.58
2023-02-12T18:35:29.116Z,14.58
2023-02-12T18:37:57.872Z,14.58
2023-02-12T18:40:25.657Z,14.57
2023-02-12T18:42:52.651Z,14.57
2023-02-12T18:45:21.541Z,14.58
2023-02-12T18:47:48.423Z,14.56
2023-02-12T18:50:15.448Z,14.55
2023-02-12T18:52:43.722Z,14.54
2023-02-12T18:55:10.667Z,14.51
2023-02-12T18:57:37.556Z,14.51
2023-02-12T19:00:06.025Z,14.50
2023-02-12T19:02:33.028Z,14.51
2023-02-12T19:05:00.132Z,14.51
2023-02-12T19:07:27.334Z,14.52
2023-02-12T19:09:55.735Z,14.53
2023-02-12T19:12:23.115Z,14.53
2023-02-12T19:14:50.027Z,14.53
2023-02-12T19:17:17.098Z,14.49
2023-02-12T19:19:44.149Z,14.47
2023-02-12T19:22:11.107Z,14.45
2023-02-12T19:24:46.623Z,14.42
2023-02-12T19:27:15.465Z,14.39
2023-02-12T19:29:42.653Z,14.38
2023-02-12T19:32:09.841Z,14.36
2023-02-12T19:34:36.752Z,14.32
2023-02-12T19:37:03.614Z,14.29
2023-02-12T19:39:30.641Z,14.25
2023-02-12T19:41:57.477Z,14.22
2023-02-12T19:44:25.867Z,14.21
2023-02-12T19:46:53.173Z,14.18
2023-02-12T19:49:23.418Z,14.16
2023-02-12T19:51:50.654Z,14.13
2023-02-12T19:54:20.103Z,14.13
2023-02-12T19:56:47.537Z,14.13
2023-02-12T19:59:17.524Z,14.11
2023-02-12T20:01:48.040Z,14.10
2023-02-12T20:04:20.006Z,14.11
2023-02-12T20:06:50.696Z,14.10
2023-02-12T20:09:18.203Z,14.07
2023-02-12T20:11:45.367Z,14.04
2023-02-12T20:14:14.043Z,14.04
2023-02-12T20:16:44.502Z,14.02
2023-02-12T20:19:16.973Z,14.01
2023-02-12T20:21:44.186Z,14.03
2023-02-12T20:24:11.186Z,14.07
2023-02-12T20:26:38.854Z,14.09
2023-02-12T20:29:06.429Z,14.13
2023-02-12T20:31:37.014Z,14.13
2023-02-12T20:34:07.878Z,14.15
2023-02-12T20:36:38.839Z,14.18
2023-02-12T20:39:10.453Z,14.16
2023-02-12T20:41:37.881Z,14.15
2023-02-12T20:44:07.072Z,14.15
2023-02-12T20:46:36.108Z,14.14
2023-02-12T20:49:03.601Z,14.13
2023-02-12T20:51:31.123Z,14.15
2023-02-12T20:54:01.711Z,14.17
2023-02-12T20:56:31.936Z,14.16
2023-02-12T20:58:59.983Z,14.15
2023-02-12T21:01:34.551Z,14.14
2023-02-12T21:04:04.267Z,14.14
2023-02-12T21:06:31.662Z,14.14
2023-02-12T21:08:59.991Z,14.15
2023-02-12T21:11:29.110Z,14.15
2023-02-12T21:14:02.745Z,14.16
2023-02-12T21:16:41.530Z,14.15
2023-02-12T21:19:09.448Z,14.15
2023-02-12T21:21:39.343Z,14.14
2023-02-12T21:24:12.571Z,14.13
2023-02-12T21:26:39.895Z,14.12
2023-02-12T21:29:06.860Z,14.11
2023-02-12T21:31:36.781Z,14.11
2023-02-12T21:34:06.928Z,14.10
2023-02-12T21:36:37.312Z,14.09
2023-02-12T21:39:09.905Z,14.09
2023-02-12T21:41:40.283Z,14.05
2023-02-12T21:44:12.128Z,14.03
2023-02-12T21:46:40.147Z,13.99
2023-02-12T21:49:07.949Z,13.95
2023-02-12T21:51:37.828Z,13.92
2023-02-12T21:54:09.565Z,13.88
2023-02-12T21:56:37.940Z,13.85
2023-02-12T21:59:06.033Z,13.83
2023-02-12T22:01:41.021Z,13.80
2023-02-12T22:04:08.611Z,13.79
2023-02-12T22:06:38.477Z,13.77
2023-02-12T22:09:09.424Z,13.77
2023-02-12T22:11:38.370Z,13.75
2023-02-12T22:14:08.014Z,13.76
2023-02-12T22:16:36.506Z,13.74
2023-02-12T22:19:04.994Z,13.73
2023-02-12T22:21:36.520Z,13.72
2023-02-12T22:24:06.993Z,13.71
2023-02-12T22:26:36.001Z,13.71
2023-02-12T22:29:06.542Z,13.70
2023-02-12T22:31:37.068Z,13.72
2023-02-12T22:34:07.208Z,13.73
2023-02-12T22:36:36.207Z,13.72
2023-02-12T22:39:04.855Z,13.69
2023-02-12T22:41:32.642Z,13.68
2023-02-12T22:44:02.506Z,13.66
2023-02-12T22:46:29.427Z,13.63
2023-02-12T22:48:56.511Z,13.62
2023-02-12T22:51:25.963Z,13.61
2023-02-12T22:53:54.195Z,13.61
2023-02-12T22:56:22.733Z,13.58
2023-02-12T22:58:56.001Z,13.55
2023-02-12T23:01:25.630Z,13.52
2023-02-12T23:03:53.273Z,13.50
2023-02-12T23:06:22.963Z,13.47
2023-02-12T23:08:52.310Z,13.45
2023-02-12T23:11:20.358Z,13.44
2023-02-12T23:13:47.633Z,13.44
2023-02-12T23:16:14.658Z,13.43
2023-02-12T23:18:43.381Z,13.43
2023-02-12T23:21:10.291Z,13.40
2023-02-12T23:23:37.383Z,13.40
2023-02-12T23:26:05.007Z,13.42
2023-02-12T23:28:32.346Z,13.42
2023-02-12T23:30:59.668Z,13.43
2023-02-12T23:33:26.871Z,13.43
2023-02-12T23:35:55.091Z,13.45
2023-02-12T23:38:22.126Z,13.46
2023-02-12T23:40:49.068Z,13.45
2023-02-12T23:43:16.032Z,13.45
2023-02-12T23:45:44.366Z,13.44
2023-02-12T23:48:12.073Z,13.47
2023-02-12T23:50:39.335Z,13.48
2023-02-12T23:53:09.998Z,13.49
2023-02-12T23:55:38.178Z,13.51
2023-02-12T23:58:06.728Z,13.52
